Date,TemperatureHighF,TemperatureAvgF,TemperatureLowF,DewpointHighF,DewpointAvgF,DewpointLowF,HumidityHigh,HumidityAvg,HumidityLow,PressureMaxIn,PressureMinIn,WindSpeedMaxMPH,WindSpeedAvgMPH,GustSpeedMaxMPH,PrecipitationSumIn
2013-8-1,69.1,61.5,54.5,58.1,55.4,52.8,95,81,66,30.08,30.04,9,1,13,0.00
2013-8-2,59.9,58.4,56.3,58.2,56.0,53.1,97,92,86,30.16,30.06,3,0,3,0.12
2013-8-3,70.5,62.7,56.8,60.0,57.3,54.3,97,84,64,30.16,30.08,14,2,14,0.00
2013-8-4,75.9,64.9,52.2,61.4,56.8,50.4,95,77,59,30.10,29.97,12,2,17,0.00
2013-8-5,81.9,67.8,55.9,63.8,58.0,52.8,94,73,52,30.04,29.96,8,1,12,0.00
2013-8-6,81.9,67.5,54.1,59.4,54.7,49.5,87,66,42,30.04,29.95,7,1,10,0.00
2013-8-7,82.0,67.3,55.9,60.6,55.3,51.5,91,68,42,30.04,29.98,12,1,15,0.00
2013-8-8,80.2,65.6,55.6,61.8,57.0,52.9,94,75,51,30.06,29.97,6,1,7,0.00
2013-8-9,79.7,68.6,55.2,61.1,57.2,52.6,93,69,52,29.99,29.87,12,1,16,0.00
2013-8-10,74.5,65.1,57.9,64.3,60.1,56.7,97,85,69,30.04,29.91,6,0,6,0.23
2013-8-11,71.4,62.1,56.1,60.6,56.2,52.7,95,82,63,30.09,30.02,10,1,15,0.00
2013-8-12,75.0,63.9,55.6,58.6,55.6,52.2,91,76,52,30.10,30.03,13,1,13,0.00
2013-8-13,76.8,65.5,54.3,60.1,55.9,51.9,94,73,54,30.13,29.96,11,1,13,0.00
2013-8-14,82.2,65.3,55.9,62.3,56.8,51.2,95,76,41,29.98,29.92,11,0,13,0.10
2013-8-15,69.1,64.5,61.7,64.8,62.4,60.1,97,93,85,30.02,29.94,5,0,7,0.04
2013-8-16,80.1,69.2,60.4,64.4,60.6,56.3,98,77,45,30.04,29.96,10,1,10,0.00
2013-8-17,75.0,65.1,56.7,62.3,58.2,54.0,93,79,63,30.10,30.02,11,1,12,0.00
2013-8-18,74.5,63.7,58.1,61.8,57.1,54.8,92,80,63,30.15,30.10,13,1,21,0.00
2013-8-19,75.2,64.6,59.2,61.0,56.5,52.6,87,76,56,30.14,30.09,11,1,17,0.00
2013-8-20,72.3,63.5,57.0,55.7,51.9,48.0,85,67,44,30.19,30.10,16,2,20,0.00
2013-8-21,75.4,65.4,51.3,55.8,51.8,47.1,87,63,46,30.12,29.96,14,2,23,0.00
2013-8-22,79.9,68.1,53.8,58.8,53.4,47.9,83,61,43,29.98,29.83,10,1,16,0.00
2013-8-23,73.8,65.1,59.2,59.2,56.4,54.6,89,74,55,29.91,29.85,11,1,17,0.00
2013-8-24,70.2,62.7,55.6,61.4,56.8,52.1,95,82,59,29.95,29.88,10,1,11,0.02
2013-8-25,73.0,61.8,53.2,57.9,54.3,50.8,94,78,57,29.98,29.89,8,1,11,0.00
2013-8-26,75.0,62.8,55.8,60.4,55.0,51.8,93,77,46,29.98,29.87,10,1,16,0.04
2013-8-27,77.5,65.9,58.1,61.9,58.4,54.0,94,79,57,29.98,29.82,9,1,13,0.04
2013-8-28,76.6,66.9,57.9,64.9,60.4,56.3,98,81,58,29.92,29.85,10,1,16,0.22
2013-8-29,70.3,64.5,62.2,66.6,63.0,60.3,98,95,85,30.02,29.88,11,1,14,1.29
2013-8-30,74.1,64.9,57.9,62.1,57.8,54.0,96,79,57,30.16,30.02,12,2,16,0.00
2013-8-31,73.9,64.7,53.4,59.9,56.0,51.6,95,75,56,30.11,29.87,11,2,14,0.00